createdAt,value
2018-04-07T00:00:56.835Z,95627.18
2018-04-07T00:03:24.382Z,95617.50
2018-04-07T00:05:51.887Z,95628.42
2018-04-07T00:08:19.397Z,95625.94
2018-04-07T00:10:46.948Z,95627.06
2018-04-07T00:13:14.501Z,95625.57
2018-04-07T00:15:42.016Z,95632.23
2018-04-07T00:18:09.524Z,95629.28
2018-04-07T00:20:37.049Z,95626.98
2018-04-07T00:23:04.568Z,95634.94
2018-04-07T00:25:32.072Z,95633.02
2018-04-07T00:27:59.585Z,95630.73
2018-04-07T00:30:27.126Z,95630.23
2018-04-07T00:32:54.634Z,95623.34
2018-04-07T00:35:22.152Z,95624.78
2018-04-07T00:37:49.674Z,95625.37
2018-04-07T00:40:17.257Z,95618.58
2018-04-07T00:42:44.765Z,95616.61
2018-04-07T00:45:12.270Z,95625.53
2018-04-07T00:47:39.848Z,95622.70
2018-04-07T00:50:07.355Z,95624.34
2018-04-07T00:52:46.566Z,95625.63
2018-04-07T00:55:14.085Z,95615.27
2018-04-07T00:57:41.605Z,95636.74
2018-04-07T01:00:09.148Z,95626.77
2018-04-07T01:02:36.710Z,95628.19
2018-04-07T01:05:04.234Z,95634.94
2018-04-07T01:07:31.790Z,95625.49
2018-04-07T01:09:59.309Z,95630.67
2018-04-07T01:12:26.860Z,95639.05
2018-04-07T01:14:54.373Z,95641.68
2018-04-07T01:17:21.921Z,95646.59
2018-04-07T01:19:49.430Z,95648.19
2018-04-07T01:22:16.942Z,95645.23
2018-04-07T01:24:44.473Z,95662.94
2018-04-07T01:27:11.986Z,95668.11
2018-04-07T01:29:39.558Z,95666.30
2018-04-07T01:32:07.088Z,95662.00
2018-04-07T01:34:34.741Z,95667.06
2018-04-07T01:37:02.271Z,95669.06
2018-04-07T01:39:29.805Z,95671.60
2018-04-07T01:41:57.373Z,95672.65
2018-04-07T01:44:24.944Z,95650.04
2018-04-07T01:46:52.478Z,95673.66
2018-04-07T01:49:20.067Z,95677.78
2018-04-07T01:51:47.617Z,95680.06
2018-04-07T01:54:15.128Z,95671.89
2018-04-07T01:56:42.685Z,95678.40
2018-04-07T01:59:10.193Z,95679.45
2018-04-07T02:01:37.734Z,95666.94
2018-04-07T02:04:05.237Z,95668.42
2018-04-07T02:06:32.774Z,95666.31
2018-04-07T02:09:00.288Z,95666.30
2018-04-07T02:11:27.796Z,95663.30
2018-04-07T02:13:55.300Z,95667.01
2018-04-07T02:16:22.862Z,95678.81
2018-04-07T02:18:50.386Z,95677.24
2018-04-07T02:21:17.940Z,95676.69
2018-04-07T02:23:45.435Z,95686.45
2018-04-07T02:26:12.945Z,95678.76
2018-04-07T02:28:40.449Z,95681.36
2018-04-07T02:31:07.998Z,95682.93
2018-04-07T02:33:35.547Z,95680.89
2018-04-07T02:36:03.053Z,95690.23
2018-04-07T02:38:30.684Z,95687.48
2018-04-07T02:40:58.199Z,95691.17
2018-04-07T02:43:25.742Z,95683.58
2018-04-07T02:45:53.298Z,95681.58
2018-04-07T02:48:20.841Z,95695.64
2018-04-07T02:50:48.388Z,95687.78
2018-04-07T02:53:15.941Z,95687.00
2018-04-07T02:55:43.456Z,95681.11
2018-04-07T02:58:10.968Z,95685.63
2018-04-07T03:00:38.516Z,95699.75
2018-04-07T03:03:06.014Z,95689.84
2018-04-07T03:05:33.561Z,95700.05
2018-04-07T03:08:01.073Z,95696.34
2018-04-07T03:10:28.580Z,95704.77
2018-04-07T03:12:56.120Z,95698.27
2018-04-07T03:15:23.624Z,95708.06
2018-04-07T03:17:51.140Z,95710.59
2018-04-07T03:20:18.635Z,95709.64
2018-04-07T03:22:46.142Z,95718.84
2018-04-07T03:25:13.650Z,95712.38
2018-04-07T03:27:41.173Z,95713.54
2018-04-07T03:30:08.709Z,95716.73
2018-04-07T03:32:36.221Z,95727.57
2018-04-07T03:35:03.734Z,95722.88
2018-04-07T03:37:31.245Z,95720.69
2018-04-07T03:39:58.755Z,95727.44
2018-04-07T03:42:26.253Z,95717.74
2018-04-07T03:44:53.772Z,95730.22
2018-04-07T03:47:21.284Z,95734.56
2018-04-07T03:49:48.829Z,95732.27
2018-04-07T03:52:16.348Z,95734.34
2018-04-07T03:54:43.862Z,95734.56
2018-04-07T03:57:11.372Z,95732.95
2018-04-07T03:59:38.879Z,95735.09
2018-04-07T04:02:06.426Z,95740.42
2018-04-07T04:04:34.016Z,95749.09
2018-04-07T04:07:01.557Z,95746.69
2018-04-07T04:09:29.062Z,95747.81
2018-04-07T04:11:56.561Z,95754.53
2018-04-07T04:14:24.068Z,95758.19
2018-04-07T04:16:51.618Z,95757.31
2018-04-07T04:19:19.180Z,95772.14
2018-04-07T04:21:46.692Z,95756.28
2018-04-07T04:24:14.203Z,95766.27
2018-04-07T04:26:41.718Z,95763.73
2018-04-07T04:29:09.222Z,95771.92
2018-04-07T04:31:36.729Z,95790.06
2018-04-07T04:34:04.249Z,95780.52
2018-04-07T04:36:31.801Z,95784.66
2018-04-07T04:38:59.362Z,95784.48
2018-04-07T04:41:26.923Z,95782.30
2018-04-07T04:43:54.433Z,95783.97
2018-04-07T04:46:21.971Z,95781.81
2018-04-07T04:48:49.478Z,95783.34
2018-04-07T04:51:17.067Z,95771.67
2018-04-07T04:53:44.623Z,95785.00
2018-04-07T04:56:12.127Z,95794.16
2018-04-07T04:58:39.633Z,95791.53
2018-04-07T05:01:07.173Z,95785.83
2018-04-07T05:03:34.794Z,95792.95
2018-04-07T05:06:02.331Z,95795.38
2018-04-07T05:08:29.984Z,95784.41
2018-04-07T05:10:57.495Z,95790.96
2018-04-07T05:13:25.001Z,95801.23
2018-04-07T05:15:52.564Z,95785.73
2018-04-07T05:18:20.088Z,95781.86
2018-04-07T05:20:47.624Z,95778.09
2018-04-07T05:23:15.125Z,95789.03
2018-04-07T05:25:42.629Z,95776.92
2018-04-07T05:28:10.140Z,95779.50
2018-04-07T05:30:37.683Z,95774.22
2018-04-07T05:33:05.234Z,95784.83
2018-04-07T05:35:32.741Z,95784.27
2018-04-07T05:38:00.301Z,95782.22
2018-04-07T05:40:27.848Z,95771.80
2018-04-07T05:42:55.349Z,95791.44
2018-04-07T05:45:22.894Z,95798.18
2018-04-07T05:47:50.412Z,95792.03
2018-04-07T05:50:17.921Z,95797.66
2018-04-07T05:52:45.550Z,95799.02
2018-04-07T05:55:13.065Z,95805.66
2018-04-07T05:57:40.580Z,95800.38
2018-04-07T06:00:08.129Z,95806.65
2018-04-07T06:02:35.698Z,95803.81
2018-04-07T06:05:03.216Z,95804.22
2018-04-07T06:07:30.733Z,95806.45
2018-04-07T06:09:58.241Z,95807.41
2018-04-07T06:12:25.799Z,95812.77
2018-04-07T06:14:53.312Z,95813.80
2018-04-07T06:17:20.815Z,95811.14
2018-04-07T06:19:48.325Z,95829.10
2018-04-07T06:22:15.833Z,95824.30
2018-04-07T06:24:43.405Z,95826.13
2018-04-07T06:27:10.900Z,95828.99
2018-04-07T06:29:38.437Z,95831.70
2018-04-07T06:32:05.987Z,95836.04
2018-04-07T06:34:33.546Z,95831.69
2018-04-07T06:37:01.041Z,95837.23
2018-04-07T06:39:28.568Z,95849.53
2018-04-07T06:41:56.079Z,95849.56
2018-04-07T06:44:23.625Z,95840.86
2018-04-07T06:46:51.164Z,95846.72
2018-04-07T06:49:18.688Z,95850.02
2018-04-07T06:51:46.245Z,95847.05
2018-04-07T06:54:13.768Z,95846.90
2018-04-07T06:56:41.273Z,95843.11
2018-04-07T06:59:08.819Z,95838.80
2018-04-07T07:01:36.321Z,95844.25
2018-04-07T07:04:03.869Z,95857.48
2018-04-07T07:06:31.369Z,95855.95
2018-04-07T07:08:58.905Z,95862.95
2018-04-07T07:11:26.481Z,95867.31
2018-04-07T07:13:53.978Z,95855.95
2018-04-07T07:16:21.488Z,95860.28
2018-04-07T07:18:49.044Z,95861.06
2018-04-07T07:21:16.559Z,95859.56
2018-04-07T07:23:44.161Z,95863.34
2018-04-07T07:26:11.664Z,95870.12
2018-04-07T07:28:39.168Z,95873.19
2018-04-07T07:31:06.718Z,95865.20
2018-04-07T07:33:34.229Z,95863.00
2018-04-07T07:36:01.794Z,95877.05
2018-04-07T07:38:29.288Z,95870.41
2018-04-07T07:40:56.781Z,95870.80
2018-04-07T07:43:24.335Z,95875.63
2018-04-07T07:45:51.840Z,95878.36
2018-04-07T07:48:19.350Z,95863.19
2018-04-07T07:50:46.889Z,95882.33
2018-04-07T07:53:14.401Z,95871.34
2018-04-07T07:55:41.901Z,95875.50
2018-04-07T07:58:09.447Z,95876.77
2018-04-07T08:00:36.996Z,95876.89
2018-04-07T08:03:04.533Z,95881.16
2018-04-07T08:05:32.045Z,95864.45
2018-04-07T08:07:59.563Z,95885.91
2018-04-07T08:10:27.101Z,95872.44
2018-04-07T08:12:54.655Z,95885.78
2018-04-07T08:15:22.191Z,95876.81
2018-04-07T08:17:49.745Z,95878.73
2018-04-07T08:20:17.276Z,95877.49
2018-04-07T08:22:44.800Z,95881.78
2018-04-07T08:25:12.332Z,95878.64
2018-04-07T08:27:39.832Z,95882.88
2018-04-07T08:30:07.372Z,95879.97
2018-04-07T08:32:34.873Z,95886.66
2018-04-07T08:35:02.429Z,95887.73
2018-04-07T08:37:29.960Z,95895.66
2018-04-07T08:39:57.533Z,95891.61
2018-04-07T08:42:25.080Z,95899.41
2018-04-07T08:44:52.679Z,95894.22
2018-04-07T08:47:20.177Z,95895.20
2018-04-07T08:49:47.697Z,95889.31
2018-04-07T08:52:15.191Z,95889.03
2018-04-07T08:54:42.692Z,95888.82
2018-04-07T08:57:10.193Z,95888.44
2018-04-07T08:59:37.733Z,95892.44
2018-04-07T09:02:05.242Z,95891.41
2018-04-07T09:04:32.751Z,95888.83
2018-04-07T09:07:00.274Z,95889.74
2018-04-07T09:09:27.785Z,95891.98
2018-04-07T09:11:55.334Z,95892.06
2018-04-07T09:14:22.881Z,95886.65
2018-04-07T09:16:50.424Z,95893.84
2018-04-07T09:19:17.956Z,95898.95
2018-04-07T09:21:45.457Z,95894.75
2018-04-07T09:24:12.993Z,95890.56
2018-04-07T09:26:40.505Z,95902.67
2018-04-07T09:29:08.052Z,95903.66
2018-04-07T09:31:35.578Z,95900.61
2018-04-07T09:34:03.084Z,95891.91
2018-04-07T09:36:30.579Z,95900.52
2018-04-07T09:38:58.082Z,95906.67
2018-04-07T09:41:25.618Z,95909.41
2018-04-07T09:43:53.164Z,95905.47
2018-04-07T09:46:20.711Z,95900.81
2018-04-07T09:48:48.238Z,95901.53
2018-04-07T09:51:15.793Z,95898.12
2018-04-07T09:53:43.312Z,95893.12
2018-04-07T09:56:10.878Z,95899.05
2018-04-07T09:58:38.383Z,95897.55
2018-04-07T10:01:05.926Z,95894.78
2018-04-07T10:03:33.430Z,95899.02
2018-04-07T10:06:00.982Z,95884.42
2018-04-07T10:08:28.490Z,95889.20
2018-04-07T10:10:55.993Z,95877.92
2018-04-07T10:13:23.529Z,95883.47
2018-04-07T10:15:51.027Z,95871.52
2018-04-07T10:18:18.581Z,95877.84
2018-04-07T10:20:46.123Z,95870.30
2018-04-07T10:23:13.642Z,95859.86
2018-04-07T10:25:41.201Z,95858.91
2018-04-07T10:28:08.699Z,95855.03
2018-04-07T10:30:36.208Z,95856.12
2018-04-07T10:33:03.745Z,95859.22
2018-04-07T10:35:31.259Z,95863.30
2018-04-07T10:37:58.808Z,95850.70
2018-04-07T10:40:26.349Z,95849.13
2018-04-07T10:42:53.906Z,95850.29
2018-04-07T10:45:21.409Z,95841.28
2018-04-07T10:47:48.960Z,95845.73
2018-04-07T10:50:16.487Z,95842.60
2018-04-07T10:52:44.054Z,95845.43
2018-04-07T10:55:11.597Z,95849.60
2018-04-07T10:57:39.156Z,95839.89
2018-04-07T11:00:06.707Z,95841.03
2018-04-07T11:02:34.245Z,95840.53
2018-04-07T11:05:01.794Z,95839.09
2018-04-07T11:07:29.303Z,95845.14
2018-04-07T11:09:56.801Z,95846.64
2018-04-07T11:12:24.316Z,95845.04
2018-04-07T11:14:51.819Z,95841.73
2018-04-07T11:17:19.334Z,95842.52
2018-04-07T11:19:46.836Z,95844.22
2018-04-07T11:22:14.393Z,95836.22
2018-04-07T11:24:41.899Z,95832.34
2018-04-07T11:27:09.413Z,95833.14
2018-04-07T11:29:36.930Z,95835.18
2018-04-07T11:32:04.491Z,95835.78
2018-04-07T11:34:31.988Z,95813.33
2018-04-07T11:36:59.498Z,95825.68
2018-04-07T11:39:27.872Z,95834.95
2018-04-07T11:41:55.372Z,95836.25
2018-04-07T11:44:22.885Z,95829.98
2018-04-07T11:46:50.434Z,95831.37
2018-04-07T11:49:17.947Z,95824.00
2018-04-07T11:51:45.481Z,95827.23
2018-04-07T11:54:13.021Z,95825.40
2018-04-07T11:56:40.532Z,95836.81
2018-04-07T11:59:08.064Z,95832.05
2018-04-07T12:01:35.564Z,95835.77
2018-04-07T12:04:03.111Z,95838.34
2018-04-07T12:06:30.605Z,95837.13
2018-04-07T12:08:58.109Z,95839.30
2018-04-07T12:11:25.686Z,95830.02
2018-04-07T12:13:53.189Z,95821.50
2018-04-07T12:16:20.736Z,95798.01
2018-04-07T12:18:48.265Z,95820.06
2018-04-07T12:21:15.770Z,95826.18
2018-04-07T12:23:43.290Z,95809.40
2018-04-07T12:26:10.798Z,95811.33
2018-04-07T12:28:38.328Z,95810.64
2018-04-07T12:31:05.824Z,95814.08
2018-04-07T12:33:33.329Z,95803.55
2018-04-07T12:36:00.825Z,95814.19
2018-04-07T12:38:28.360Z,95811.19
2018-04-07T12:40:55.867Z,95814.77
2018-04-07T12:43:23.361Z,95813.50
2018-04-07T12:45:50.901Z,95810.69
2018-04-07T12:48:18.405Z,95807.94
2018-04-07T12:50:45.924Z,95814.61
2018-04-07T12:53:13.483Z,95803.17
2018-04-07T12:55:40.985Z,95804.38
2018-04-07T12:58:08.489Z,95800.17
2018-04-07T13:00:36.030Z,95801.84
2018-04-07T13:03:03.616Z,95796.30
2018-04-07T13:05:31.160Z,95798.16
2018-04-07T13:07:58.663Z,95802.14
2018-04-07T13:10:26.203Z,95802.70
2018-04-07T13:12:53.749Z,95801.73
2018-04-07T13:15:21.280Z,95796.66
2018-04-07T13:17:48.785Z,95790.83
2018-04-07T13:20:16.288Z,95791.22
2018-04-07T13:22:43.807Z,95793.94
2018-04-07T13:25:11.366Z,95793.72
2018-04-07T13:27:38.865Z,95794.68
2018-04-07T13:30:06.420Z,95794.86
2018-04-07T13:32:33.919Z,95791.98
2018-04-07T13:35:01.461Z,95788.21
2018-04-07T13:37:29.010Z,95788.80
2018-04-07T13:39:56.550Z,95785.22
2018-04-07T13:42:24.044Z,95787.92
2018-04-07T13:44:51.549Z,95782.77
2018-04-07T13:47:19.048Z,95782.04
2018-04-07T13:49:46.602Z,95776.28
2018-04-07T13:52:14.103Z,95785.55
2018-04-07T13:54:41.651Z,95786.80
2018-04-07T13:57:09.154Z,95787.39
2018-04-07T13:59:36.714Z,95788.48
2018-04-07T14:02:04.225Z,95790.44
2018-04-07T14:04:31.737Z,95782.78
2018-04-07T14:06:59.314Z,95793.24
2018-04-07T14:09:26.873Z,95763.27
2018-04-07T14:11:54.377Z,95794.09
2018-04-07T14:14:21.879Z,95796.06
2018-04-07T14:16:49.426Z,95801.56
2018-04-07T14:19:16.955Z,95795.53
2018-04-07T14:21:44.503Z,95803.30
2018-04-07T14:24:12.057Z,95797.39
2018-04-07T14:26:39.564Z,95796.30
2018-04-07T14:29:07.295Z,95805.60
2018-04-07T14:31:34.843Z,95803.91
2018-04-07T14:34:02.362Z,95802.00
2018-04-07T14:36:29.935Z,95800.10
2018-04-07T14:38:57.435Z,95801.09
2018-04-07T14:41:24.969Z,95806.80
2018-04-07T14:43:52.512Z,95803.28
2018-04-07T14:46:20.012Z,95811.44
2018-04-07T14:48:47.554Z,95810.84
2018-04-07T14:51:15.061Z,95810.14
2018-04-07T14:53:42.611Z,95803.17
2018-04-07T14:56:10.176Z,95811.03
2018-04-07T14:58:37.677Z,95817.64
2018-04-07T15:01:05.214Z,95813.37
2018-04-07T15:03:33.391Z,95813.98
2018-04-07T15:06:00.894Z,95820.84
2018-04-07T15:08:28.397Z,95817.17
2018-04-07T15:10:55.905Z,95812.19
2018-04-07T15:13:23.443Z,95818.30
2018-04-07T15:15:50.949Z,95821.41
2018-04-07T15:18:18.474Z,95823.38
2018-04-07T15:20:45.974Z,95818.30
2018-04-07T15:23:13.571Z,95826.86
2018-04-07T15:25:41.072Z,95825.31
2018-04-07T15:28:08.633Z,95823.55
2018-04-07T15:30:36.143Z,95817.19
2018-04-07T15:33:03.660Z,95824.79
2018-04-07T15:35:31.190Z,95823.30
2018-04-07T15:37:58.707Z,95821.42
2018-04-07T15:40:26.256Z,95823.46
2018-04-07T15:42:53.764Z,95830.95
2018-04-07T15:45:21.269Z,95824.66
2018-04-07T15:47:48.806Z,95832.61
2018-04-07T15:50:16.323Z,95835.20
2018-04-07T15:52:43.868Z,95815.15
2018-04-07T15:55:11.360Z,95830.63
2018-04-07T15:57:38.863Z,95836.04
2018-04-07T16:00:06.416Z,95839.99
2018-04-07T16:02:33.909Z,95822.67
2018-04-07T16:05:01.456Z,95835.94
2018-04-07T16:07:29.004Z,95822.20
2018-04-07T16:09:56.546Z,95839.16
2018-04-07T16:12:24.056Z,95844.30
2018-04-07T16:14:51.559Z,95844.97
2018-04-07T16:17:19.103Z,95867.73
2018-04-07T16:19:46.605Z,95849.64
2018-04-07T16:22:14.140Z,95855.13
2018-04-07T16:24:41.637Z,95864.24
2018-04-07T16:27:09.138Z,95854.14
2018-04-07T16:29:36.672Z,95854.95
2018-04-07T16:32:04.174Z,95855.46
2018-04-07T16:34:31.674Z,95856.88
2018-04-07T16:36:59.235Z,95863.22
2018-04-07T16:39:26.739Z,95863.33
2018-04-07T16:41:54.297Z,95866.55
2018-04-07T16:44:21.798Z,95873.00
2018-04-07T16:46:49.300Z,95873.83
2018-04-07T16:49:16.797Z,95876.29
2018-04-07T16:51:44.378Z,95874.55
2018-04-07T16:54:11.871Z,95878.52
2018-04-07T16:56:39.368Z,95877.48
2018-04-07T16:59:06.910Z,95880.31
2018-04-07T17:01:34.425Z,95886.24
2018-04-07T17:04:01.959Z,95883.34
2018-04-07T17:06:29.523Z,95883.27
2018-04-07T17:08:57.041Z,95885.50
2018-04-07T17:11:24.573Z,95889.95
2018-04-07T17:13:52.121Z,95885.94
2018-04-07T17:16:19.620Z,95884.69
2018-04-07T17:18:47.165Z,95887.25
2018-04-07T17:21:14.686Z,95886.81
2018-04-07T17:23:42.196Z,95896.55
2018-04-07T17:26:09.741Z,95890.06
2018-04-07T17:28:37.240Z,95903.86
2018-04-07T17:31:04.793Z,95901.77
2018-04-07T17:33:32.293Z,95908.17
2018-04-07T17:35:59.837Z,95904.77
2018-04-07T17:38:27.334Z,95909.61
2018-04-07T17:40:54.882Z,95907.03
2018-04-07T17:43:22.380Z,95914.91
2018-04-07T17:45:49.881Z,95907.41
2018-04-07T17:48:17.433Z,95912.54
2018-04-07T17:50:44.945Z,95927.33
2018-04-07T17:53:12.498Z,95926.38
2018-04-07T17:55:40.057Z,95932.09
2018-04-07T17:58:07.564Z,95924.22
2018-04-07T18:00:35.105Z,95930.62
2018-04-07T18:03:02.601Z,95943.94
2018-04-07T18:05:30.149Z,95935.20
2018-04-07T18:07:57.684Z,95939.91
2018-04-07T18:10:25.189Z,95947.50
2018-04-07T18:12:52.734Z,95951.38
2018-04-07T18:15:20.241Z,95958.73
2018-04-07T18:17:47.798Z,95966.89
2018-04-07T18:20:15.310Z,95963.56
2018-04-07T18:22:42.813Z,95962.87
2018-04-07T18:25:10.395Z,95969.81
2018-04-07T18:27:37.898Z,95969.60
2018-04-07T18:30:05.438Z,95969.79
2018-04-07T18:32:32.951Z,95967.80
2018-04-07T18:35:00.463Z,95970.14
2018-04-07T18:37:28.013Z,95979.38
2018-04-07T18:39:55.553Z,95979.08
2018-04-07T18:42:23.053Z,95977.14
2018-04-07T18:44:50.621Z,95982.83
2018-04-07T18:47:18.127Z,95983.84
2018-04-07T18:49:45.646Z,95986.55
2018-04-07T18:52:13.145Z,95986.77
2018-04-07T18:54:40.684Z,95985.31
2018-04-07T18:57:08.186Z,95986.48
2018-04-07T18:59:35.724Z,95993.41
2018-04-07T19:02:03.246Z,96002.11
2018-04-07T19:04:30.802Z,95997.22
2018-04-07T19:06:58.309Z,95997.52
2018-04-07T19:09:25.891Z,96001.34
2018-04-07T19:11:53.399Z,95997.12
2018-04-07T19:14:20.920Z,96002.03
2018-04-07T19:16:48.469Z,95997.52
2018-04-07T19:19:15.984Z,95993.08
2018-04-07T19:21:43.555Z,95997.39
2018-04-07T19:24:11.073Z,95996.59
2018-04-07T19:26:38.609Z,96000.82
2018-04-07T19:29:06.148Z,95996.69
2018-04-07T19:31:33.688Z,96003.02
2018-04-07T19:34:01.237Z,95996.50
2018-04-07T19:36:29.520Z,96000.97
2018-04-07T19:38:57.065Z,96002.13
2018-04-07T19:41:24.624Z,95995.39
2018-04-07T19:43:52.181Z,95999.45
2018-04-07T19:46:19.728Z,96007.27
2018-04-07T19:48:47.282Z,96007.97
2018-04-07T19:51:14.815Z,96011.94
2018-04-07T19:53:42.334Z,96011.98
2018-04-07T19:56:09.854Z,96009.73
2018-04-07T19:58:37.369Z,96012.23
2018-04-07T20:01:04.922Z,96013.09
2018-04-07T20:03:32.477Z,96007.37
2018-04-07T20:06:00.761Z,96005.97
2018-04-07T20:08:28.276Z,96011.02
2018-04-07T20:10:55.784Z,96013.75
2018-04-07T20:13:23.290Z,96013.35
2018-04-07T20:15:50.837Z,96019.50
2018-04-07T20:18:18.389Z,96017.41
2018-04-07T20:20:45.956Z,96012.27
2018-04-07T20:23:13.506Z,96016.77
2018-04-07T20:25:41.012Z,96015.38
2018-04-07T20:28:08.525Z,96011.72
2018-04-07T20:30:36.079Z,96019.44
2018-04-07T20:33:03.581Z,96020.95
2018-04-07T20:35:31.134Z,96023.11
2018-04-07T20:37:58.643Z,96023.56
2018-04-07T20:40:26.151Z,96024.77
2018-04-07T20:42:53.666Z,96027.16
2018-04-07T20:45:21.234Z,96019.44
2018-04-07T20:47:48.743Z,96022.18
2018-04-07T20:50:16.293Z,96022.30
2018-04-07T20:52:43.796Z,96028.61
2018-04-07T20:55:11.349Z,96031.34
2018-04-07T20:57:38.856Z,96031.98
2018-04-07T21:00:06.420Z,96023.44
2018-04-07T21:02:33.976Z,96016.89
2018-04-07T21:05:01.492Z,96022.95
2018-04-07T21:07:29.001Z,96021.46
2018-04-07T21:09:56.547Z,96016.35
2018-04-07T21:12:24.101Z,96011.14
2018-04-07T21:14:51.655Z,96016.11
2018-04-07T21:17:19.205Z,96017.78
2018-04-07T21:19:46.721Z,96015.02
2018-04-07T21:22:14.272Z,96017.49
2018-04-07T21:24:41.825Z,96017.25
2018-04-07T21:27:09.334Z,96019.20
2018-04-07T21:29:36.840Z,96020.55
2018-04-07T21:32:04.393Z,96022.48
2018-04-07T21:34:31.937Z,96016.03
2018-04-07T21:36:59.484Z,96021.05
2018-04-07T21:39:27.006Z,96021.45
2018-04-07T21:41:54.569Z,96024.50
2018-04-07T21:44:22.140Z,96025.06
2018-04-07T21:46:49.698Z,96009.74
2018-04-07T21:49:17.234Z,96026.25
2018-04-07T21:51:44.804Z,96028.43
2018-04-07T21:54:12.315Z,96026.83
2018-04-07T21:56:39.856Z,96030.64
2018-04-07T21:59:07.373Z,96009.09
2018-04-07T22:01:34.932Z,96024.02
2018-04-07T22:04:02.441Z,96023.72
2018-04-07T22:06:30.341Z,96026.91
2018-04-07T22:08:57.898Z,96025.23
2018-04-07T22:11:25.425Z,96016.39
2018-04-07T22:13:52.978Z,96020.34
2018-04-07T22:16:20.545Z,96019.97
2018-04-07T22:18:48.053Z,96017.03
2018-04-07T22:21:15.606Z,96017.45
2018-04-07T22:23:43.153Z,96029.45
2018-04-07T22:26:10.662Z,96021.19
2018-04-07T22:28:38.217Z,96023.08
2018-04-07T22:31:05.794Z,96024.61
2018-04-07T22:33:33.324Z,96004.75
2018-04-07T22:36:00.852Z,96012.63
2018-04-07T22:38:28.416Z,96012.38
2018-04-07T22:40:55.974Z,96012.92
2018-04-07T22:43:23.488Z,96016.41
2018-04-07T22:45:51.041Z,96019.52
2018-04-07T22:48:18.544Z,96016.74
2018-04-07T22:50:46.094Z,96013.56
2018-04-07T22:53:13.604Z,96013.48
2018-04-07T22:55:41.157Z,96011.80
2018-04-07T22:58:08.674Z,96005.85
2018-04-07T23:00:36.229Z,96008.95
2018-04-07T23:03:03.772Z,96000.30
2018-04-07T23:05:31.319Z,96009.28
2018-04-07T23:07:58.894Z,95997.53
2018-04-07T23:10:26.400Z,95995.84
2018-04-07T23:12:53.913Z,96002.05
2018-04-07T23:15:21.432Z,95999.66
2018-04-07T23:17:48.948Z,95988.28
2018-04-07T23:20:16.500Z,96003.30
2018-04-07T23:22:44.019Z,96000.03
2018-04-07T23:25:11.526Z,96000.65
2018-04-07T23:27:39.032Z,95997.80
2018-04-07T23:30:06.550Z,95989.63
2018-04-07T23:32:34.103Z,95989.89
2018-04-07T23:35:01.662Z,95985.84
2018-04-07T23:37:29.182Z,95985.61
2018-04-07T23:39:56.695Z,95983.70
2018-04-07T23:42:24.212Z,95986.55
2018-04-07T23:44:51.729Z,95985.69
2018-04-07T23:47:19.246Z,95982.83
2018-04-07T23:49:46.821Z,95985.84
2018-04-07T23:52:14.336Z,95975.60
2018-04-07T23:54:41.850Z,95972.58
2018-04-07T23:57:09.363Z,95978.45
2018-04-07T23:59:36.876Z,95974.91
